Time;durP1;ratioP1;P1;durP2;ratioP2;P2;SDS_P1;SDS_P2;PMS_P1;PMS_P2;Temp;Humidity;BMP_temperature;BMP_pressure;BME280_temperature;BME280_humidity;BME280_pressure;Samples;Min_cycle;Max_cycle;Signal;HPM_P1;HPM_P2
2021/06/23 00:00:35;;;;;;;13.05;2.40;;;17.10;75.50;;;;;;5107695;28;20700;-75
2021/06/23 00:03:02;;;;;;;13.75;2.42;;;17.10;75.50;;;;;;5108017;28;20212;-72
2021/06/23 00:05:31;;;;;;;10.40;2.10;;;17.10;76.30;;;;;;5109940;28;20229;-73
2021/06/23 00:08:00;;;;;;;10.15;2.00;;;17.20;75.80;;;;;;5106706;28;20209;-73
2021/06/23 00:10:27;;;;;;;9.98;2.13;;;17.10;75.90;;;;;;5109691;28;20590;-75
2021/06/23 00:12:54;;;;;;;13.88;2.72;;;17.20;76.10;;;;;;5106814;28;20208;-72
2021/06/23 00:15:22;;;;;;;9.93;2.13;;;17.10;76.30;;;;;;5108837;28;20197;-71
2021/06/23 00:17:49;;;;;;;12.77;2.67;;;17.10;76.40;;;;;;5105722;28;20201;-71
2021/06/23 00:20:16;;;;;;;8.77;1.90;;;17.10;76.50;;;;;;5107217;28;20220;-73
2021/06/23 00:22:44;;;;;;;10.55;2.22;;;17.10;76.40;;;;;;5105314;28;20605;-73
2021/06/23 00:25:12;;;;;;;7.32;2.10;;;17.10;76.20;;;;;;5108336;28;20213;-72
2021/06/23 00:27:39;;;;;;;12.90;2.30;;;17.10;76.00;;;;;;5135786;27;20204;-73
2021/06/23 00:30:07;;;;;;;7.50;1.98;;;17.10;75.90;;;;;;5104834;28;20220;-71
2021/06/23 00:32:36;;;;;;;8.93;1.98;;;17.10;75.90;;;;;;5109204;28;20205;-72
2021/06/23 00:35:03;;;;;;;12.23;2.38;;;17.10;75.70;;;;;;5113525;28;20211;-74
2021/06/23 00:37:30;;;;;;;8.85;2.20;;;17.10;75.50;;;;;;5110941;28;20205;-71
2021/06/23 00:39:59;;;;;;;9.13;1.95;;;17.00;75.30;;;;;;5112095;28;20306;-74
2021/06/23 00:42:26;;;;;;;13.40;2.65;;;17.00;75.20;;;;;;5111710;28;20229;-73
2021/06/23 00:44:56;;;;;;;8.13;1.83;;;17.00;75.20;;;;;;5111002;28;20228;-74
2021/06/23 00:47:26;;;;;;;8.75;2.15;;;17.00;75.20;;;;;;5108417;28;20534;-73
2021/06/23 00:49:53;;;;;;;16.52;2.30;;;17.00;75.10;;;;;;5106439;28;20189;-72
2021/06/23 00:52:56;;;;;;;11.88;1.80;;;17.00;75.00;;;;;;5064912;28;20840;-73
2021/06/23 00:55:30;;;;;;;9.23;1.75;;;17.00;75.20;;;;;;5101089;28;20212;-73
2021/06/23 00:57:57;;;;;;;8.93;1.80;;;16.90;75.20;;;;;;5111336;28;20198;-72
2021/06/23 01:00:29;;;;;;;9.07;1.58;;;17.00;76.30;;;;;;5107162;28;20220;-74
2021/06/23 01:03:00;;;;;;;11.10;2.08;;;16.90;75.50;;;;;;5111110;28;20200;-75
2021/06/23 01:05:29;;;;;;;7.20;1.67;;;16.90;75.60;;;;;;5110270;28;20735;-72
2021/06/23 01:07:57;;;;;;;10.85;1.90;;;16.90;75.60;;;;;;5110972;28;20208;-72
2021/06/23 01:10:24;;;;;;;10.85;1.70;;;16.90;75.60;;;;;;5109882;28;20194;-73
2021/06/23 01:13:15;;;;;;;9.25;1.75;;;16.90;75.60;;;;;;5124256;27;20220;-73
2021/06/23 01:15:44;;;;;;;14.00;1.90;;;16.90;75.70;;;;;;5097696;28;20201;-73
2021/06/23 01:18:13;;;;;;;9.00;1.80;;;16.90;75.70;;;;;;5111111;28;20713;-74
2021/06/23 01:20:42;;;;;;;8.55;1.80;;;16.90;75.70;;;;;;5109073;28;20720;-72
2021/06/23 01:23:10;;;;;;;14.40;2.40;;;16.80;75.70;;;;;;5110505;28;20250;-72
2021/06/23 01:25:37;;;;;;;10.00;2.10;;;16.80;75.80;;;;;;5110470;28;20296;-71
2021/06/23 01:28:05;;;;;;;9.18;1.67;;;16.80;75.90;;;;;;5111451;28;20653;-74
2021/06/23 01:30:39;;;;;;;7.28;1.67;;;16.80;75.90;;;;;;5110770;28;20209;-73
2021/06/23 01:33:18;;;;;;;6.20;1.63;;;16.80;76.00;;;;;;5109971;28;20287;-74
2021/06/23 01:35:48;;;;;;;9.93;1.73;;;16.80;76.00;;;;;;5109659;28;20583;-73
2021/06/23 01:38:16;;;;;;;11.68;2.63;;;16.80;76.00;;;;;;5110592;28;20672;-75
2021/06/23 01:40:44;;;;;;;8.57;2.00;;;16.80;76.00;;;;;;5107646;28;20211;-73
2021/06/23 01:43:12;;;;;;;6.75;1.55;;;16.80;76.10;;;;;;5109579;28;20266;-73
2021/06/23 01:45:39;;;;;;;6.03;2.15;;;16.70;76.10;;;;;;5111343;28;20998;-74
2021/06/23 01:48:08;;;;;;;6.95;1.65;;;16.80;76.00;;;;;;5108855;28;20204;-72
2021/06/23 01:50:37;;;;;;;10.40;1.90;;;16.70;76.00;;;;;;5112745;28;20276;-73
2021/06/23 01:53:04;;;;;;;6.82;1.75;;;16.70;75.90;;;;;;5110931;28;20246;-73
2021/06/23 01:55:32;;;;;;;10.20;1.90;;;16.70;76.70;;;;;;5110766;27;20193;-71
2021/06/23 01:58:08;;;;;;;8.50;1.80;;;16.70;76.00;;;;;;5111546;28;20224;-73
2021/06/23 02:00:51;;;;;;;10.57;1.92;;;16.70;76.00;;;;;;5107094;28;20308;-72
2021/06/23 02:03:20;;;;;;;10.75;2.08;;;16.70;75.80;;;;;;5110265;28;20657;-72
2021/06/23 02:05:58;;;;;;;11.55;2.20;;;16.60;75.80;;;;;;5109845;28;20701;-75
2021/06/23 02:08:37;;;;;;;10.38;1.60;;;16.60;75.90;;;;;;5105561;28;20207;-70
2021/06/23 02:11:33;;;;;;;8.80;1.70;;;16.60;76.00;;;;;;5108500;28;20275;-72
2021/06/23 02:14:33;;;;;;;7.45;1.70;;;16.60;76.00;;;;;;5103882;28;20223;-73
2021/06/23 02:17:15;;;;;;;8.77;1.88;;;16.60;75.90;;;;;;5107345;28;20197;-72
2021/06/23 02:19:50;;;;;;;6.90;1.40;;;16.60;76.00;;;;;;5108834;28;20224;-73
2021/06/23 02:22:29;;;;;;;6.00;1.70;;;16.60;76.10;;;;;;5107777;28;20287;-73
2021/06/23 02:25:07;;;;;;;12.73;2.30;;;16.60;76.20;;;;;;5112342;28;20265;-76
2021/06/23 02:27:42;;;;;;;10.18;1.95;;;16.50;76.30;;;;;;5107502;28;20291;-73
2021/06/23 02:30:11;;;;;;;11.77;2.17;;;16.60;76.40;;;;;;5105786;28;20197;-72
2021/06/23 02:32:42;;;;;;;6.32;1.55;;;16.50;76.40;;;;;;5109311;28;20222;-75
2021/06/23 02:35:10;;;;;;;7.43;2.08;;;16.50;76.50;;;;;;5109752;28;20233;-73
2021/06/23 02:37:44;;;;;;;12.70;2.10;;;16.50;76.40;;;;;;5107040;28;20274;-72
2021/06/23 02:40:12;;;;;;;11.80;2.53;;;16.50;76.40;;;;;;5110656;28;20270;-74
2021/06/23 02:42:46;;;;;;;8.82;1.70;;;16.50;76.60;;;;;;5108875;28;20201;-73
2021/06/23 02:45:18;;;;;;;6.97;1.80;;;16.50;76.70;;;;;;5108031;28;20721;-75
2021/06/23 02:47:46;;;;;;;6.75;1.92;;;16.50;76.80;;;;;;5104270;28;20186;-73
2021/06/23 02:50:21;;;;;;;8.80;1.80;;;16.50;76.80;;;;;;5104348;28;20193;-73
2021/06/23 02:53:08;;;;;;;11.50;2.10;;;16.40;76.70;;;;;;5107435;28;20286;-75
2021/06/23 02:55:35;;;;;;;12.13;1.98;;;16.40;76.70;;;;;;5110094;28;20223;-74
2021/06/23 02:58:05;;;;;;;10.32;2.30;;;16.40;76.70;;;;;;5107156;28;20642;-74
2021/06/23 03:00:33;;;;;;;10.50;1.95;;;16.40;76.70;;;;;;5110181;28;20641;-73
2021/06/23 03:03:01;;;;;;;9.02;1.95;;;16.40;76.90;;;;;;5103125;27;20214;-73
2021/06/23 03:05:28;;;;;;;11.18;2.70;;;16.40;77.00;;;;;;5109931;28;20278;-73
2021/06/23 03:07:56;;;;;;;7.50;1.80;;;16.40;77.00;;;;;;5108409;28;20201;-73
2021/06/23 03:10:32;;;;;;;13.07;1.90;;;16.40;76.90;;;;;;5109384;28;20201;-73
2021/06/23 03:12:59;;;;;;;14.82;2.50;;;16.30;76.90;;;;;;5105372;28;20293;-74
2021/06/23 03:15:36;;;;;;;9.43;2.00;;;16.30;77.10;;;;;;5109569;28;20275;-74
2021/06/23 03:18:11;;;;;;;7.07;1.98;;;16.30;77.30;;;;;;5102825;28;20203;-73
2021/06/23 03:20:39;;;;;;;11.13;1.92;;;16.30;77.30;;;;;;5107213;28;20221;-74
2021/06/23 03:23:07;;;;;;;7.25;2.08;;;16.30;77.30;;;;;;5105167;28;20209;-75
2021/06/23 03:25:35;;;;;;;7.05;1.85;;;16.30;77.50;;;;;;5108615;28;20205;-77
2021/06/23 03:28:05;;;;;;;11.38;2.00;;;16.30;77.60;;;;;;5107562;27;20227;-73
2021/06/23 03:30:37;;;;;;;9.85;1.90;;;16.20;77.70;;;;;;5107904;28;20636;-74
2021/06/23 03:33:05;;;;;;;7.35;1.80;;;16.30;77.80;;;;;;5106136;28;20198;-73
2021/06/23 03:35:50;;;;;;;4.68;1.60;;;16.20;78.00;;;;;;5109148;28;20205;-72
2021/06/23 03:38:17;;;;;;;10.25;2.17;;;16.20;78.20;;;;;;5108104;28;20270;-74
2021/06/23 03:40:44;;;;;;;9.77;1.98;;;16.20;78.20;;;;;;5109558;28;20208;-75
2021/06/23 03:43:12;;;;;;;13.50;2.20;;;16.20;78.30;;;;;;5102603;28;20196;-75
2021/06/23 03:45:44;;;;;;;12.90;2.60;;;16.20;78.60;;;;;;5104237;28;20205;-74
2021/06/23 03:48:11;;;;;;;9.48;2.15;;;16.20;78.70;;;;;;5104450;28;20288;-73
2021/06/23 03:50:38;;;;;;;7.32;1.92;;;16.20;78.90;;;;;;5106318;28;20204;-73
2021/06/23 03:53:05;;;;;;;8.77;1.95;;;16.20;79.00;;;;;;5107841;28;20279;-73
2021/06/23 03:55:33;;;;;;;10.95;2.00;;;16.20;79.20;;;;;;5110387;27;20810;-73
2021/06/23 03:58:01;;;;;;;11.68;1.92;;;16.20;79.30;;;;;;5106650;28;20205;-73
2021/06/23 04:00:29;;;;;;;9.20;2.20;;;16.20;79.50;;;;;;5108927;28;20244;-73
2021/06/23 04:03:14;;;;;;;8.73;1.73;;;16.30;79.60;;;;;;5106915;28;20309;-72
2021/06/23 04:06:10;;;;;;;13.00;5.68;;;16.20;79.60;;;;;;5108079;28;20609;-73
2021/06/23 04:08:37;;;;;;;13.13;2.78;;;16.20;79.70;;;;;;5105207;28;20202;-74
2021/06/23 04:11:04;;;;;;;12.98;2.17;;;16.20;79.80;;;;;;5108336;28;20197;-74
2021/06/23 04:13:33;;;;;;;13.70;2.10;;;16.30;80.10;;;;;;5107710;28;20721;-72
2021/06/23 04:16:03;;;;;;;9.45;2.42;;;16.20;80.30;;;;;;5108084;28;20204;-72
2021/06/23 04:18:31;;;;;;;14.70;2.40;;;16.30;80.60;;;;;;5105806;28;20193;-73
2021/06/23 04:20:58;;;;;;;11.00;2.33;;;16.30;80.70;;;;;;5107443;28;20603;-74
2021/06/23 04:23:26;;;;;;;9.80;2.10;;;16.20;80.90;;;;;;5106873;28;20201;-75
2021/06/23 04:25:54;;;;;;;14.27;2.35;;;16.30;81.20;;;;;;5107626;28;20661;-73
2021/06/23 04:28:22;;;;;;;12.55;2.45;;;16.20;81.50;;;;;;5104932;28;20201;-73
2021/06/23 04:30:49;;;;;;;27.02;13.65;;;16.30;81.70;;;;;;5106265;28;20288;-73
2021/06/23 04:33:17;;;;;;;9.82;3.17;;;16.30;81.80;;;;;;5107554;28;20240;-72
2021/06/23 04:35:51;;;;;;;12.80;2.88;;;16.30;81.90;;;;;;5106923;28;20201;-72
2021/06/23 04:38:19;;;;;;;12.02;3.10;;;16.30;82.00;;;;;;5104337;28;20594;-76
2021/06/23 04:40:46;;;;;;;15.43;2.83;;;16.30;82.10;;;;;;5107524;28;20646;-72
2021/06/23 04:43:14;;;;;;;11.27;1.80;;;16.30;82.30;;;;;;5107931;28;20196;-75
2021/06/23 04:45:45;;;;;;;11.13;2.60;;;16.30;82.50;;;;;;5106235;28;20194;-75
2021/06/23 04:48:13;;;;;;;9.45;2.40;;;16.30;82.50;;;;;;5106437;28;20951;-77
2021/06/23 04:50:40;;;;;;;5.38;2.03;;;16.30;82.60;;;;;;5110035;28;20197;-75
2021/06/23 04:53:22;;;;;;;11.02;2.60;;;16.30;82.70;;;;;;5138683;27;20246;-73
2021/06/23 04:55:49;;;;;;;10.63;2.17;;;16.40;82.90;;;;;;5104399;28;20232;-72
2021/06/23 04:58:18;;;;;;;14.00;2.30;;;16.30;82.60;;;;;;5119972;28;20193;-71
2021/06/23 05:00:52;;;;;;;11.50;2.00;;;16.40;83.40;;;;;;5104689;28;20217;-71
2021/06/23 05:03:27;;;;;;;14.23;2.15;;;16.40;82.50;;;;;;5098374;28;20257;-71
2021/06/23 05:05:57;;;;;;;8.07;1.88;;;16.40;82.50;;;;;;5106341;28;20236;-72
2021/06/23 05:08:26;;;;;;;8.88;2.20;;;16.40;82.30;;;;;;5108471;28;20193;-70
2021/06/23 05:10:53;;;;;;;5.18;1.63;;;16.40;82.10;;;;;;5109715;28;20193;-71
2021/06/23 05:13:21;;;;;;;12.70;4.38;;;16.50;82.10;;;;;;5108230;28;20201;-74
2021/06/23 05:15:48;;;;;;;12.70;2.88;;;16.50;81.90;;;;;;5109405;28;20532;-73
2021/06/23 05:18:15;;;;;;;6.28;2.03;;;16.50;81.90;;;;;;5108287;28;20204;-72
2021/06/23 05:20:43;;;;;;;10.18;2.10;;;16.50;81.80;;;;;;5113723;27;20224;-72
2021/06/23 05:23:10;;;;;;;10.13;2.20;;;16.50;81.80;;;;;;5112207;28;20668;-72
2021/06/23 05:25:38;;;;;;;11.18;2.25;;;16.50;81.80;;;;;;5111852;28;20196;-70
2021/06/23 05:28:05;;;;;;;6.47;2.00;;;16.50;82.10;;;;;;5110903;28;20196;-70
2021/06/23 05:30:32;;;;;;;12.90;2.00;;;16.50;82.20;;;;;;5111071;28;20213;-72
2021/06/23 05:32:59;;;;;;;16.23;2.20;;;16.50;82.00;;;;;;5112124;28;20204;-70
2021/06/23 05:35:26;;;;;;;8.65;2.20;;;16.40;81.80;;;;;;5109713;28;20666;-72
2021/06/23 05:37:53;;;;;;;10.00;2.22;;;16.50;81.80;;;;;;5109211;28;20212;-73
2021/06/23 05:40:20;;;;;;;13.43;2.55;;;16.50;81.80;;;;;;5109978;28;20220;-71
2021/06/23 05:42:48;;;;;;;5.55;1.80;;;16.50;81.70;;;;;;5109908;28;20201;-72
2021/06/23 05:45:16;;;;;;;10.00;2.17;;;16.50;81.70;;;;;;5111776;28;20662;-71
2021/06/23 05:47:43;;;;;;;11.05;2.53;;;16.50;81.40;;;;;;5110618;28;20564;-72
2021/06/23 05:50:10;;;;;;;15.63;2.60;;;16.40;81.10;;;;;;5111554;27;20680;-72
2021/06/23 05:52:37;;;;;;;11.30;2.70;;;16.50;81.10;;;;;;5112035;28;20201;-72
2021/06/23 05:55:05;;;;;;;15.43;4.32;;;16.40;81.10;;;;;;5109937;28;20712;-73
2021/06/23 05:57:32;;;;;;;15.95;3.28;;;16.50;81.20;;;;;;5110092;28;20673;-72
2021/06/23 06:00:00;;;;;;;8.40;2.80;;;16.50;81.20;;;;;;5109991;28;20209;-73
2021/06/23 06:02:27;;;;;;;9.50;2.88;;;16.40;81.20;;;;;;5108161;28;20221;-72
2021/06/23 06:04:54;;;;;;;12.07;2.88;;;16.40;81.20;;;;;;5106714;28;20229;-72
2021/06/23 06:07:20;;;;;;;14.32;3.35;;;16.50;81.30;;;;;;5108937;28;20204;-73
2021/06/23 06:09:47;;;;;;;14.43;2.97;;;16.50;81.40;;;;;;5111623;28;20193;-72
2021/06/23 06:12:14;;;;;;;12.25;2.85;;;16.50;81.60;;;;;;5110614;28;20254;-73
2021/06/23 06:14:41;;;;;;;15.02;2.80;;;16.40;81.40;;;;;;5110995;28;20657;-74
2021/06/23 06:17:10;;;;;;;10.73;2.78;;;16.50;81.60;;;;;;5109102;28;20212;-72
2021/06/23 06:19:36;;;;;;;10.95;2.83;;;16.50;81.80;;;;;;5110374;28;20197;-72
2021/06/23 06:22:04;;;;;;;10.75;3.25;;;16.40;81.90;;;;;;5109823;28;20681;-74
2021/06/23 06:24:31;;;;;;;18.98;3.10;;;16.50;82.20;;;;;;5110527;28;20204;-73
2021/06/23 06:26:57;;;;;;;11.18;2.60;;;16.40;82.20;;;;;;5110689;28;20677;-73
2021/06/23 06:29:24;;;;;;;8.50;2.60;;;16.50;82.40;;;;;;5110297;28;20197;-73
2021/06/23 06:31:51;;;;;;;12.48;2.40;;;16.50;82.50;;;;;;5105164;28;20200;-72
2021/06/23 06:34:19;;;;;;;10.27;2.50;;;16.50;82.50;;;;;;5107754;28;20205;-72
2021/06/23 06:36:47;;;;;;;6.97;2.55;;;16.50;82.80;;;;;;5109140;28;20200;-72
2021/06/23 06:39:13;;;;;;;7.90;2.25;;;16.50;83.00;;;;;;5104312;28;20569;-73
2021/06/23 06:41:41;;;;;;;12.20;2.45;;;16.50;83.10;;;;;;5109083;28;20213;-72
2021/06/23 06:44:08;;;;;;;6.13;1.95;;;16.50;83.20;;;;;;5105556;28;20239;-73
2021/06/23 06:46:36;;;;;;;8.90;2.40;;;16.50;83.10;;;;;;5110585;28;20571;-74
2021/06/23 06:49:03;;;;;;;9.13;2.40;;;16.60;83.00;;;;;;5106540;28;20290;-73
2021/06/23 06:51:31;;;;;;;9.43;2.50;;;16.60;82.90;;;;;;5104896;28;20205;-74
2021/06/23 06:53:58;;;;;;;10.18;2.47;;;16.70;82.90;;;;;;5108757;28;20189;-75
2021/06/23 06:56:25;;;;;;;9.25;2.35;;;16.70;82.70;;;;;;5110917;28;20202;-75
2021/06/23 06:58:52;;;;;;;8.10;2.15;;;16.70;82.60;;;;;;5106723;28;20200;-73
2021/06/23 07:01:19;;;;;;;6.55;2.42;;;16.80;82.50;;;;;;5107765;28;20597;-74
2021/06/23 07:03:46;;;;;;;6.57;2.28;;;16.80;82.30;;;;;;5100804;28;20209;-74
2021/06/23 07:06:14;;;;;;;5.72;1.80;;;16.80;82.00;;;;;;5109689;28;20201;-75
2021/06/23 07:08:42;;;;;;;10.77;2.53;;;16.80;81.90;;;;;;5109496;28;20197;-76
2021/06/23 07:11:09;;;;;;;10.02;2.35;;;16.90;81.90;;;;;;5107790;28;20574;-74
2021/06/23 07:13:36;;;;;;;11.45;2.35;;;16.90;81.80;;;;;;5110075;28;20201;-73
2021/06/23 07:16:03;;;;;;;8.20;2.40;;;16.90;81.70;;;;;;5109196;28;20275;-74
2021/06/23 07:18:31;;;;;;;12.80;2.60;;;16.90;81.80;;;;;;5107755;28;20542;-75
2021/06/23 07:20:58;;;;;;;10.18;2.55;;;16.90;81.70;;;;;;5109096;28;20201;-74
2021/06/23 07:23:25;;;;;;;6.43;2.30;;;16.90;81.80;;;;;;5105690;28;20284;-76
2021/06/23 07:25:53;;;;;;;11.53;2.70;;;16.90;81.80;;;;;;5103285;28;20447;-72
2021/06/23 07:28:29;;;;;;;12.75;2.10;;;17.00;81.70;;;;;;5106088;28;20205;-70
2021/06/23 07:30:56;;;;;;;10.55;2.40;;;17.00;81.30;;;;;;5107981;28;20295;-70
2021/06/23 07:33:23;;;;;;;7.07;2.28;;;17.10;80.90;;;;;;5108002;28;20208;-74
2021/06/23 07:38:31;;;;;;;8.10;2.17;;;17.10;80.30;;;;;;5097966;28;20296;-71
2021/06/23 07:41:01;;;;;;;11.20;2.25;;;17.10;80.20;;;;;;5110836;28;20193;-70
2021/06/23 07:43:28;;;;;;;5.50;2.10;;;17.10;80.00;;;;;;5106088;28;20213;-72
2021/06/23 07:45:57;;;;;;;11.10;2.42;;;17.10;80.00;;;;;;5110212;28;20215;-74
2021/06/23 07:48:28;;;;;;;7.13;2.38;;;17.20;79.90;;;;;;5107492;28;20212;-74
2021/06/23 07:51:04;;;;;;;7.80;2.40;;;17.20;79.80;;;;;;5104885;28;20657;-71
2021/06/23 07:53:36;;;;;;;11.43;2.50;;;17.20;79.80;;;;;;5105553;28;20209;-70
2021/06/23 07:56:09;;;;;;;6.43;2.20;;;17.20;79.70;;;;;;5110795;28;20545;-72
2021/06/23 08:09:38;;;;;;;9.20;2.50;;;17.30;80.00;;;;;;5106671;28;20740;-71
2021/06/23 08:12:17;;;;;;;16.48;3.13;;;17.30;79.80;;;;;;5106916;28;20201;-71
2021/06/23 08:14:44;;;;;;;8.27;2.28;;;17.30;79.90;;;;;;5108991;28;20208;-72
2021/06/23 08:17:11;;;;;;;9.63;2.58;;;17.40;80.20;;;;;;5108881;28;20548;-73
2021/06/23 08:19:38;;;;;;;8.30;2.35;;;17.40;80.30;;;;;;5107238;28;20204;-73
2021/06/23 08:22:10;;;;;;;10.93;2.70;;;17.50;80.20;;;;;;5107454;28;20249;-71
2021/06/23 08:24:36;;;;;;;7.22;2.20;;;17.50;80.10;;;;;;5100504;28;20741;-73
2021/06/23 08:27:06;;;;;;;7.45;2.15;;;17.50;79.80;;;;;;5109299;28;20201;-73
2021/06/23 08:29:33;;;;;;;11.48;2.50;;;17.60;80.40;;;;;;5108943;28;20204;-72
2021/06/23 08:31:59;;;;;;;8.93;2.42;;;17.60;79.30;;;;;;5108021;28;20242;-70
2021/06/23 08:34:28;;;;;;;8.13;2.20;;;17.60;79.00;;;;;;5108279;28;20211;-70
2021/06/23 08:36:55;;;;;;;7.40;1.85;;;17.70;78.80;;;;;;5109749;28;20193;-72
2021/06/23 08:39:22;;;;;;;4.50;1.92;;;17.80;78.70;;;;;;5109718;28;20201;-72
2021/06/23 08:41:49;;;;;;;5.18;2.42;;;17.80;78.30;;;;;;5109474;28;20916;-71
2021/06/23 08:44:17;;;;;;;14.40;2.40;;;17.80;77.90;;;;;;5108402;28;20203;-73
2021/06/23 08:46:44;;;;;;;7.78;1.83;;;17.90;77.60;;;;;;5106003;28;20185;-73
2021/06/23 08:49:12;;;;;;;8.48;2.30;;;17.90;78.30;;;;;;5106671;28;20201;-71
2021/06/23 08:51:40;;;;;;;7.03;1.73;;;18.00;77.20;;;;;;5110049;28;20199;-73
2021/06/23 08:54:07;;;;;;;9.07;2.10;;;18.00;77.00;;;;;;5110199;28;20233;-71
2021/06/23 08:56:34;;;;;;;5.80;2.30;;;18.10;76.90;;;;;;5107922;28;21794;-74
2021/06/23 08:59:03;;;;;;;6.72;2.10;;;18.20;76.50;;;;;;5107075;28;20664;-73
2021/06/23 09:01:32;;;;;;;6.35;2.05;;;18.20;76.20;;;;;;5113700;28;20578;-70
2021/06/23 09:04:04;;;;;;;6.05;1.88;;;18.20;76.10;;;;;;5109569;28;20295;-71
2021/06/23 09:06:45;;;;;;;5.50;1.95;;;18.30;75.90;;;;;;5112419;28;20193;-71
2021/06/23 09:09:20;;;;;;;7.50;1.92;;;18.40;75.60;;;;;;5109980;28;20209;-72
2021/06/23 09:11:48;;;;;;;5.05;1.90;;;18.40;75.50;;;;;;5112044;28;20192;-72
2021/06/23 09:14:17;;;;;;;6.18;2.15;;;18.50;75.40;;;;;;5111970;28;20201;-70
2021/06/23 09:17:10;;;;;;;10.43;2.17;;;18.50;75.30;;;;;;5113413;28;20197;-75
2021/06/23 09:19:38;;;;;;;7.72;2.05;;;18.60;75.20;;;;;;5113561;28;20193;-73
2021/06/23 09:22:26;;;;;;;10.63;2.25;;;18.60;75.20;;;;;;5110243;28;20625;-72
2021/06/23 09:24:54;;;;;;;11.23;2.75;;;18.70;75.20;;;;;;5105787;28;20201;-71
2021/06/23 09:27:24;;;;;;;15.82;2.10;;;18.70;75.10;;;;;;5107069;28;20202;-71
2021/06/23 09:29:52;;;;;;;4.72;1.80;;;18.80;74.90;;;;;;5112380;28;20218;-70
2021/06/23 09:32:20;;;;;;;10.85;2.20;;;18.90;74.70;;;;;;5111140;27;20642;-72
2021/06/23 09:34:49;;;;;;;5.05;2.15;;;18.90;74.30;;;;;;5113494;28;20208;-72
2021/06/23 09:37:27;;;;;;;5.13;1.95;;;19.00;74.20;;;;;;5111422;28;20226;-72
2021/06/23 09:40:21;;;;;;;10.20;2.00;;;19.10;74.10;;;;;;5112947;28;20201;-74
2021/06/23 09:42:49;;;;;;;7.25;2.13;;;19.10;74.00;;;;;;5087795;28;20224;-71
2021/06/23 09:45:17;;;;;;;4.55;1.98;;;19.20;74.00;;;;;;5112624;28;20225;-71
2021/06/23 09:47:46;;;;;;;5.50;2.00;;;19.30;73.70;;;;;;5111509;28;20200;-72
2021/06/23 09:50:21;;;;;;;7.30;2.00;;;19.30;73.40;;;;;;5113368;28;20197;-71
2021/06/23 09:52:54;;;;;;;5.63;2.13;;;19.40;73.50;;;;;;5108656;28;20604;-71
2021/06/23 09:55:34;;;;;;;10.10;2.00;;;19.50;73.10;;;;;;5112964;28;20204;-73
2021/06/23 09:58:09;;;;;;;9.85;2.15;;;19.60;72.70;;;;;;5111054;28;20681;-72
2021/06/23 10:00:57;;;;;;;5.38;1.77;;;19.80;72.40;;;;;;5109700;28;20250;-71
2021/06/23 10:03:23;;;;;;;10.85;2.10;;;19.80;71.60;;;;;;5106623;28;20245;-75
2021/06/23 10:05:50;;;;;;;5.47;1.80;;;19.90;71.40;;;;;;5110668;28;20217;-73
2021/06/23 10:08:22;;;;;;;7.03;1.85;;;19.90;71.00;;;;;;5109772;28;20197;-70
2021/06/23 10:10:51;;;;;;;9.15;1.90;;;19.90;70.70;;;;;;5110681;28;20649;-71
2021/06/23 10:13:18;;;;;;;6.20;1.80;;;20.00;70.60;;;;;;5108367;28;20197;-72
2021/06/23 10:15:47;;;;;;;7.45;1.55;;;20.10;70.30;;;;;;5112684;28;20204;-73
2021/06/23 10:18:15;;;;;;;10.38;2.00;;;20.20;70.20;;;;;;5110302;28;20205;-71
2021/06/23 10:20:42;;;;;;;11.43;2.03;;;20.20;69.90;;;;;;5111333;28;20242;-72
2021/06/23 10:23:09;;;;;;;10.75;1.90;;;20.30;69.60;;;;;;5105190;28;20224;-70
2021/06/23 10:25:36;;;;;;;8.77;2.08;;;20.40;69.40;;;;;;5102760;27;20564;-72
2021/06/23 10:28:06;;;;;;;12.98;1.80;;;20.40;69.00;;;;;;5110268;28;20661;-73
2021/06/23 10:30:33;;;;;;;12.38;2.35;;;20.40;68.50;;;;;;5112245;28;20628;-74
2021/06/23 10:33:00;;;;;;;5.88;1.60;;;20.50;68.40;;;;;;5110393;28;20212;-71
2021/06/23 10:35:27;;;;;;;9.73;3.88;;;20.60;68.20;;;;;;5112148;28;20205;-72
2021/06/23 10:37:55;;;;;;;4.82;1.92;;;20.60;68.00;;;;;;5110354;28;20208;-71
2021/06/23 10:40:22;;;;;;;8.23;1.80;;;20.70;67.60;;;;;;5112193;28;20197;-69
2021/06/23 10:42:49;;;;;;;4.10;1.60;;;20.70;67.40;;;;;;5109068;28;20220;-71
2021/06/23 10:45:18;;;;;;;5.78;1.80;;;20.80;67.20;;;;;;5110283;28;20220;-72
2021/06/23 10:47:46;;;;;;;8.60;1.90;;;20.80;66.70;;;;;;5109988;28;20669;-70
2021/06/23 10:50:32;;;;;;;5.78;1.90;;;20.90;66.50;;;;;;5106850;28;20209;-71
2021/06/23 10:53:00;;;;;;;8.27;1.80;;;20.90;66.00;;;;;;5109639;28;20201;-71
2021/06/23 10:55:45;;;;;;;6.18;1.90;;;20.90;66.30;;;;;;5106027;28;20205;-72
2021/06/23 10:58:12;;;;;;;4.88;2.00;;;21.00;66.00;;;;;;5111325;28;20568;-73
2021/06/23 11:00:44;;;;;;;6.93;1.85;;;21.00;65.90;;;;;;5107581;28;20208;-72
2021/06/23 11:03:14;;;;;;;8.55;2.00;;;21.00;65.70;;;;;;5109450;28;20213;-72
2021/06/23 11:05:43;;;;;;;8.35;2.10;;;21.10;65.70;;;;;;5110340;28;20224;-70
2021/06/23 11:08:37;;;;;;;8.50;2.20;;;21.20;65.80;;;;;;5109469;28;20200;-70
2021/06/23 11:11:05;;;;;;;6.55;1.90;;;21.20;65.50;;;;;;5070666;28;20552;-70
2021/06/23 11:13:34;;;;;;;6.15;2.10;;;21.30;65.40;;;;;;5110610;28;20744;-71
2021/06/23 11:16:03;;;;;;;7.57;1.92;;;21.40;65.00;;;;;;5109650;28;20193;-70
2021/06/23 11:18:34;;;;;;;5.35;1.98;;;21.50;64.80;;;;;;5109674;28;20649;-72
2021/06/23 11:21:04;;;;;;;5.30;1.55;;;21.50;64.70;;;;;;5107568;28;20208;-72
2021/06/23 11:23:49;;;;;;;7.97;1.98;;;21.60;64.60;;;;;;5104239;28;20224;-71
2021/06/23 11:26:46;;;;;;;5.88;2.00;;;21.70;64.30;;;;;;5108117;28;20213;-71
2021/06/23 11:29:28;;;;;;;6.47;1.80;;;21.70;63.90;;;;;;5110191;28;20212;-70
2021/06/23 11:32:01;;;;;;;6.15;1.77;;;21.70;64.30;;;;;;5104794;28;20593;-74
2021/06/23 11:34:55;;;;;;;6.22;1.80;;;21.70;63.80;;;;;;5110416;28;20537;-71
2021/06/23 11:37:36;;;;;;;7.70;2.00;;;21.60;63.70;;;;;;5106909;28;20285;-70
2021/06/23 11:40:21;;;;;;;6.70;2.08;;;21.60;63.80;;;;;;5109519;28;20210;-72
2021/06/23 11:42:49;;;;;;;4.72;2.00;;;21.50;63.60;;;;;;5109483;28;20235;-70
2021/06/23 11:45:18;;;;;;;6.25;2.00;;;21.50;63.80;;;;;;5108949;28;20695;-70
2021/06/23 11:47:48;;;;;;;6.93;2.20;;;21.50;64.00;;;;;;5109829;28;20208;-71
2021/06/23 11:50:15;;;;;;;9.30;2.20;;;21.50;64.00;;;;;;5109228;28;20201;-72
2021/06/23 11:52:42;;;;;;;6.75;1.92;;;21.50;64.00;;;;;;5110286;28;20197;-71
2021/06/23 11:55:12;;;;;;;7.78;1.98;;;21.50;63.80;;;;;;5108235;28;20208;-69
2021/06/23 11:57:40;;;;;;;7.80;1.85;;;21.50;63.90;;;;;;5110491;28;20201;-71
2021/06/23 12:00:08;;;;;;;6.65;2.30;;;21.60;64.00;;;;;;5105232;28;20295;-71
2021/06/23 12:02:36;;;;;;;6.13;1.63;;;21.70;63.70;;;;;;5108929;28;20213;-69
2021/06/23 12:05:05;;;;;;;6.35;2.25;;;21.80;63.60;;;;;;5106898;28;20312;-70
2021/06/23 12:07:32;;;;;;;5.72;2.13;;;22.00;63.30;;;;;;5109196;28;20201;-71
2021/06/23 12:10:01;;;;;;;6.22;1.70;;;22.20;63.20;;;;;;5106972;28;20250;-71
2021/06/23 12:12:29;;;;;;;8.05;2.42;;;22.40;62.70;;;;;;5109831;28;20205;-71
2021/06/23 12:14:55;;;;;;;5.10;1.90;;;22.60;61.90;;;;;;5108297;28;20197;-70
2021/06/23 12:17:23;;;;;;;5.78;1.90;;;22.80;61.30;;;;;;5110348;28;20251;-73
2021/06/23 12:19:52;;;;;;;6.18;1.98;;;22.90;60.60;;;;;;5105494;28;20256;-72
2021/06/23 12:22:20;;;;;;;8.23;2.42;;;23.10;60.10;;;;;;5109266;28;20278;-71
2021/06/23 12:24:48;;;;;;;5.93;1.85;;;23.20;59.80;;;;;;5105053;28;20677;-71
2021/06/23 12:27:14;;;;;;;4.70;1.80;;;23.30;59.70;;;;;;5106085;28;20207;-71
2021/06/23 12:29:44;;;;;;;6.53;1.90;;;23.50;59.30;;;;;;5100546;28;20201;-73
2021/06/23 12:32:11;;;;;;;5.47;2.50;;;23.60;58.80;;;;;;5108235;28;20217;-72
2021/06/23 12:34:38;;;;;;;5.85;2.15;;;23.80;58.40;;;;;;5107124;28;20216;-71
2021/06/23 12:37:05;;;;;;;12.82;2.03;;;23.90;57.90;;;;;;5107277;28;20294;-71
2021/06/23 12:39:33;;;;;;;8.63;2.15;;;24.10;57.20;;;;;;5108512;28;20207;-71
2021/06/23 12:42:00;;;;;;;6.78;2.03;;;24.20;56.60;;;;;;5108203;28;20205;-70
2021/06/23 12:44:28;;;;;;;6.32;2.03;;;24.30;56.30;;;;;;5108521;28;20219;-72
2021/06/23 12:46:55;;;;;;;11.73;2.03;;;24.50;55.90;;;;;;5107268;28;20189;-73
2021/06/23 12:49:22;;;;;;;7.25;1.90;;;24.60;55.70;;;;;;5109592;28;20679;-72
2021/06/23 12:51:49;;;;;;;6.18;1.88;;;24.60;55.20;;;;;;5108325;28;20209;-70
2021/06/23 12:54:16;;;;;;;5.57;1.83;;;24.60;55.10;;;;;;5106026;28;20214;-71
2021/06/23 12:56:44;;;;;;;7.00;2.08;;;24.50;54.70;;;;;;5107500;28;20669;-69
2021/06/23 12:59:11;;;;;;;6.57;2.30;;;24.40;54.70;;;;;;5107803;28;20215;-69
2021/06/23 13:01:38;;;;;;;6.40;1.90;;;24.40;54.90;;;;;;5107929;28;20201;-71
2021/06/23 13:04:05;;;;;;;6.57;2.00;;;24.30;54.80;;;;;;5109746;28;20209;-69
2021/06/23 13:06:32;;;;;;;4.60;1.60;;;24.30;54.60;;;;;;5101732;28;20233;-69
2021/06/23 13:08:59;;;;;;;6.38;2.13;;;24.30;54.60;;;;;;5109056;28;20197;-71
2021/06/23 13:11:26;;;;;;;7.80;2.10;;;24.20;54.60;;;;;;5107343;28;20232;-73